Time;durP1;ratioP1;P1;durP2;ratioP2;P2;SDS_P1;SDS_P2;PMS_P1;PMS_P2;Temp;Humidity;BMP_temperature;BMP_pressure;BME280_temperature;BME280_humidity;BME280_pressure;Samples;Min_cycle;Max_cycle;Signal;HPM_P1;HPM_P2
2021/05/25 00:00:21;;;;;;;0.93;0.93;;;;;;;11.59;77.75;99732.31;5085482;28;20223;-76
2021/05/25 00:02:48;;;;;;;2.23;1.03;;;;;;;11.57;77.64;99734.13;5085535;28;20708;-77
2021/05/25 00:05:16;;;;;;;1.30;1.00;;;;;;;11.57;77.93;99728.88;5085558;28;20204;-77
2021/05/25 00:07:42;;;;;;;0.90;0.90;;;;;;;11.61;77.53;99733.09;5085482;28;20239;-77
2021/05/25 00:10:09;;;;;;;1.70;0.97;;;;;;;11.52;78.39;99735.13;5085235;28;20232;-77
2021/05/25 00:12:36;;;;;;;2.30;0.90;;;;;;;11.59;78.10;99732.31;5085375;28;20611;-76
2021/05/25 00:15:04;;;;;;;1.67;0.90;;;;;;;11.59;78.83;99751.44;5085116;28;20206;-75
2021/05/25 00:17:30;;;;;;;1.03;0.97;;;;;;;11.60;78.55;99758.41;5085214;28;20206;-77
2021/05/25 00:19:56;;;;;;;0.73;0.73;;;;;;;11.65;78.09;99766.06;5085371;28;20306;-75
2021/05/25 00:22:22;;;;;;;1.17;1.07;;;;;;;11.67;77.93;99780.81;5085222;28;20224;-76
2021/05/25 00:24:47;;;;;;;1.30;1.00;;;;;;;11.73;78.08;99775.38;5085351;28;20499;-75
2021/05/25 00:27:13;;;;;;;0.90;0.80;;;;;;;11.75;77.73;99771.84;5085202;28;20200;-77
2021/05/25 00:29:40;;;;;;;1.43;1.10;;;;;;;11.80;77.55;99765.53;5085466;28;20722;-77
2021/05/25 00:32:06;;;;;;;1.07;0.90;;;;;;;11.84;77.08;99772.38;5084627;28;20720;-76
2021/05/25 00:34:32;;;;;;;1.43;0.93;;;;;;;11.83;77.46;99769.81;5084752;28;20237;-77
2021/05/25 00:36:58;;;;;;;1.57;1.00;;;;;;;11.86;76.84;99772.31;5085377;28;20215;-77
2021/05/25 00:39:24;;;;;;;1.20;0.97;;;;;;;11.85;77.18;99773.22;5084759;28;20224;-76
2021/05/25 00:41:50;;;;;;;3.17;1.27;;;;;;;11.91;77.64;99773.91;5085234;28;20231;-77
2021/05/25 00:44:16;;;;;;;1.50;0.93;;;;;;;11.94;77.43;99783.41;5084521;28;20205;-76
2021/05/25 00:46:43;;;;;;;0.80;0.80;;;;;;;11.90;76.96;99776.56;5085018;28;20206;-76
2021/05/25 00:49:09;;;;;;;1.03;0.80;;;;;;;11.92;76.80;99782.59;5084259;28;20309;-77
2021/05/25 00:51:35;;;;;;;4.90;1.47;;;;;;;11.90;76.49;99789.66;5084524;28;20200;-77
2021/05/25 00:54:02;;;;;;;1.03;1.03;;;;;;;11.88;77.90;99781.81;5084897;28;20696;-76
2021/05/25 00:56:28;;;;;;;1.00;0.90;;;;;;;11.85;78.06;99784.56;5084998;28;20233;-77
2021/05/25 00:58:54;;;;;;;0.83;0.83;;;;;;;11.86;77.52;99777.56;5084401;28;20233;-75
2021/05/25 01:01:21;;;;;;;1.03;1.00;;;;;;;11.86;77.54;99778.41;5085137;28;20298;-77
2021/05/25 01:03:47;;;;;;;1.17;0.90;;;;;;;11.88;77.32;99775.75;5083615;28;20199;-77
2021/05/25 01:06:13;;;;;;;2.60;1.00;;;;;;;11.87;78.17;99769.66;5083903;28;20246;-75
2021/05/25 01:08:40;;;;;;;1.73;1.00;;;;;;;11.85;77.94;99775.84;5084855;28;20595;-76
2021/05/25 01:11:09;;;;;;;0.83;0.80;;;;;;;11.75;77.81;99777.91;5084620;28;20211;-77
2021/05/25 01:13:41;;;;;;;3.63;1.10;;;;;;;11.78;77.85;99779.59;5084134;28;20307;-77
2021/05/25 01:16:08;;;;;;;1.07;0.90;;;;;;;11.86;77.66;99767.09;5084432;28;20202;-77
2021/05/25 01:18:34;;;;;;;2.53;1.00;;;;;;;11.86;77.57;99762.72;5083710;28;20230;-75
2021/05/25 01:21:01;;;;;;;2.17;1.00;;;;;;;11.89;76.97;99753.94;5084287;28;20201;-76
2021/05/25 01:23:28;;;;;;;2.00;1.17;;;;;;;11.94;77.41;99749.41;5083735;28;20217;-77
2021/05/25 01:25:54;;;;;;;1.33;0.80;;;;;;;11.91;78.32;99745.16;5084835;28;20259;-77
2021/05/25 01:28:21;;;;;;;1.93;1.10;;;;;;;11.85;78.08;99753.19;5083592;28;20297;-76
2021/05/25 01:30:49;;;;;;;1.13;1.10;;;;;;;11.91;78.25;99765.19;5084255;28;20226;-77
2021/05/25 01:33:17;;;;;;;3.57;1.80;;;;;;;11.90;78.72;99766.13;5083448;28;20213;-76
2021/05/25 01:35:43;;;;;;;1.33;0.97;;;;;;;11.90;78.81;99769.56;5084215;28;20210;-76
2021/05/25 01:38:12;;;;;;;1.03;1.03;;;;;;;11.87;78.89;99759.22;5084456;28;20200;-76
2021/05/25 01:40:40;;;;;;;1.00;0.80;;;;;;;11.84;77.83;99767.16;5084318;28;20610;-77
2021/05/25 01:43:07;;;;;;;1.33;0.90;;;;;;;11.84;78.01;99761.06;5083111;28;20232;-77
2021/05/25 01:45:34;;;;;;;1.13;0.83;;;;;;;11.69;76.87;99762.44;5084001;28;20863;-77
2021/05/25 01:48:02;;;;;;;1.23;1.13;;;;;;;11.68;77.72;99761.59;5083791;28;20241;-75
2021/05/25 01:50:29;;;;;;;0.70;0.70;;;;;;;11.70;77.94;99766.78;5083251;28;20717;-76
2021/05/25 01:52:58;;;;;;;0.97;0.80;;;;;;;11.67;77.58;99770.38;5083366;28;20199;-77
2021/05/25 01:55:27;;;;;;;1.47;0.90;;;;;;;11.71;76.81;99761.50;5083612;28;20204;-77
2021/05/25 01:57:54;;;;;;;1.43;0.90;;;;;;;11.68;76.84;99764.22;5083099;28;20213;-76
2021/05/25 02:00:20;;;;;;;1.40;0.90;;;;;;;11.73;77.89;99767.53;5083436;28;20273;-75
2021/05/25 02:02:46;;;;;;;1.67;1.10;;;;;;;11.72;76.86;99773.66;5083083;28;20234;-75
2021/05/25 02:05:12;;;;;;;2.63;0.90;;;;;;;11.78;76.23;99761.28;5083221;28;20301;-76
2021/05/25 02:07:38;;;;;;;0.77;0.77;;;;;;;11.69;76.02;99755.47;5082858;28;21065;-76
2021/05/25 02:10:06;;;;;;;2.10;0.90;;;;;;;11.71;76.09;99763.25;5083221;28;20223;-77
2021/05/25 02:12:32;;;;;;;0.80;0.80;;;;;;;11.67;76.31;99761.63;5082918;28;20230;-75
2021/05/25 02:14:59;;;;;;;0.90;0.90;;;;;;;11.63;76.48;99762.66;5082601;28;20229;-75
2021/05/25 02:17:26;;;;;;;0.80;0.80;;;;;;;11.61;76.55;99770.53;5083211;28;20215;-77
2021/05/25 02:19:51;;;;;;;1.43;0.70;;;;;;;11.58;76.02;99762.81;5082709;28;20224;-77
2021/05/25 02:22:17;;;;;;;0.97;0.87;;;;;;;11.45;75.20;99764.13;5082865;28;20238;-77
2021/05/25 02:24:43;;;;;;;1.10;0.77;;;;;;;11.43;76.40;99756.34;5083557;28;20207;-76
2021/05/25 02:27:09;;;;;;;1.37;0.80;;;;;;;11.33;75.72;99762.78;5082601;28;20204;-77
2021/05/25 02:29:35;;;;;;;1.13;0.90;;;;;;;11.28;75.76;99768.16;5083333;28;20729;-77
2021/05/25 02:32:01;;;;;;;1.10;0.80;;;;;;;11.24;75.49;99760.50;5082775;28;20588;-77
2021/05/25 02:34:27;;;;;;;1.23;0.70;;;;;;;11.29;75.36;99764.63;5082514;28;20369;-75
2021/05/25 02:36:53;;;;;;;1.20;0.70;;;;;;;11.22;75.50;99763.13;5083657;28;20198;-77
2021/05/25 02:39:19;;;;;;;1.10;0.80;;;;;;;11.23;74.69;99764.84;5082552;28;20218;-76
2021/05/25 02:41:45;;;;;;;0.50;0.50;;;;;;;11.21;75.33;99769.25;5083351;28;20268;-77
2021/05/25 02:44:11;;;;;;;1.73;0.73;;;;;;;11.23;75.21;99772.66;5082540;28;20203;-77
2021/05/25 02:46:36;;;;;;;0.80;0.57;;;;;;;11.16;74.73;99778.13;5082946;28;20578;-75
2021/05/25 02:49:03;;;;;;;0.70;0.70;;;;;;;11.22;74.04;99781.44;5082599;28;20241;-77
2021/05/25 02:51:29;;;;;;;0.80;0.67;;;;;;;11.26;74.42;99783.03;5082636;28;20206;-77
2021/05/25 02:53:55;;;;;;;1.23;0.70;;;;;;;11.26;73.68;99790.88;5083485;28;20936;-75
2021/05/25 02:56:21;;;;;;;0.63;0.63;;;;;;;11.21;75.24;99794.53;5087071;28;20735;-76
2021/05/25 02:58:47;;;;;;;1.37;0.60;;;;;;;11.25;74.23;99802.22;5086996;28;20279;-75
2021/05/25 03:01:12;;;;;;;0.60;0.60;;;;;;;11.20;74.94;99792.81;5087469;28;20230;-76
2021/05/25 03:03:38;;;;;;;0.63;0.63;;;;;;;11.11;74.12;99807.88;5086069;28;20255;-77
2021/05/25 03:06:05;;;;;;;1.03;1.03;;;;;;;11.10;74.86;99805.34;5086613;28;20247;-74
2021/05/25 03:08:31;;;;;;;1.80;0.67;;;;;;;11.10;73.80;99800.97;5086883;28;20207;-77
2021/05/25 03:10:57;;;;;;;0.70;0.70;;;;;;;11.10;73.60;99800.97;5086841;28;20202;-76
2021/05/25 03:13:23;;;;;;;0.50;0.50;;;;;;;11.09;73.88;99809.69;5086850;28;20859;-77
2021/05/25 03:15:50;;;;;;;1.17;0.60;;;;;;;11.11;73.96;99809.63;5086732;28;20673;-76
2021/05/25 03:18:17;;;;;;;0.83;0.63;;;;;;;10.89;73.10;99805.06;5086536;28;20245;-77
2021/05/25 03:20:46;;;;;;;1.00;0.40;;;;;;;10.97;73.43;99802.22;5085978;28;20231;-75
2021/05/25 03:23:12;;;;;;;1.77;0.70;;;;;;;10.82;73.09;99808.78;5086494;28;20229;-76
2021/05/25 03:25:39;;;;;;;1.80;0.67;;;;;;;10.83;73.06;99814.88;5087237;28;20235;-77
2021/05/25 03:28:05;;;;;;;0.60;0.60;;;;;;;10.80;72.88;99822.78;5086041;28;20356;-74
2021/05/25 03:30:32;;;;;;;0.97;0.60;;;;;;;10.81;73.00;99816.66;5086830;28;20712;-77
2021/05/25 03:32:58;;;;;;;0.63;0.50;;;;;;;10.83;72.75;99825.31;5086074;28;20686;-76
2021/05/25 03:35:25;;;;;;;1.63;0.60;;;;;;;10.79;73.48;99814.09;5085877;28;20489;-75
2021/05/25 03:37:53;;;;;;;0.47;0.47;;;;;;;10.67;71.59;99820.53;5087048;28;20215;-77
2021/05/25 03:40:20;;;;;;;0.90;0.43;;;;;;;10.64;72.78;99822.38;5086240;28;20278;-76
2021/05/25 03:42:47;;;;;;;0.87;0.60;;;;;;;10.64;72.35;99818.00;5085977;28;20227;-77
2021/05/25 03:45:15;;;;;;;1.13;0.90;;;;;;;10.66;72.75;99823.19;5086413;28;20733;-77
2021/05/25 03:47:41;;;;;;;0.40;0.40;;;;;;;10.60;72.51;99832.03;5085865;28;20223;-76
2021/05/25 03:50:09;;;;;;;0.60;0.60;;;;;;;10.60;73.78;99833.78;5086000;28;20226;-76
2021/05/25 03:52:36;;;;;;;0.60;0.60;;;;;;;10.66;72.56;99833.63;5085766;28;21149;-77
2021/05/25 03:55:05;;;;;;;0.83;0.60;;;;;;;10.63;73.05;99842.41;5085931;28;20205;-74
2021/05/25 04:00:16;;;;;;;0.70;0.70;;;;;;;10.66;71.94;99846.66;5086578;28;20707;-76
2021/05/25 04:02:42;;;;;;;1.37;0.60;;;;;;;10.69;73.56;99846.59;5085462;28;20231;-77
2021/05/25 04:05:09;;;;;;;0.93;0.50;;;;;;;10.69;72.45;99844.81;5084823;28;20202;-75
2021/05/25 04:07:35;;;;;;;1.40;0.80;;;;;;;10.75;73.31;99858.63;5084907;28;20239;-77
2021/05/25 04:10:01;;;;;;;0.50;0.50;;;;;;;10.68;72.84;99858.78;5085425;28;20708;-78
2021/05/25 04:12:27;;;;;;;2.17;0.70;;;;;;;10.37;74.48;99866.63;5085785;28;20268;-76
2021/05/25 04:14:54;;;;;;;0.70;0.60;;;;;;;9.86;73.35;99861.84;5084601;28;20329;-76
2021/05/25 04:17:20;;;;;;;1.33;0.40;;;;;;;9.73;74.35;99862.16;5085587;28;20210;-77
2021/05/25 04:19:46;;;;;;;0.83;0.50;;;;;;;9.62;74.70;99861.56;5085050;28;20231;-77
2021/05/25 04:22:11;;;;;;;0.77;0.50;;;;;;;9.62;75.57;99866.78;5085210;28;20275;-76
2021/05/25 04:24:37;;;;;;;0.93;0.63;;;;;;;9.79;75.62;99862.88;5085136;28;20512;-76
2021/05/25 04:27:04;;;;;;;0.87;0.53;;;;;;;9.73;76.69;99850.84;5085026;28;20204;-76
2021/05/25 04:29:29;;;;;;;2.07;0.60;;;;;;;9.84;77.17;99854.06;5084780;28;20273;-76
2021/05/25 04:31:56;;;;;;;2.53;0.70;;;;;;;9.87;77.34;99853.13;5085509;28;20207;-76
2021/05/25 04:34:22;;;;;;;0.93;0.67;;;;;;;9.87;77.41;99848.78;5084815;28;20262;-76
2021/05/25 04:36:48;;;;;;;1.20;0.60;;;;;;;9.97;77.00;99856.34;5085136;28;20579;-74
2021/05/25 04:39:14;;;;;;;1.90;0.67;;;;;;;9.96;76.62;99862.47;5084734;28;20329;-76
2021/05/25 04:41:39;;;;;;;0.60;0.60;;;;;;;10.03;76.79;99874.44;5084928;28;20754;-75
2021/05/25 04:44:06;;;;;;;0.90;0.57;;;;;;;10.07;78.14;99874.34;5084306;28;20324;-76
2021/05/25 04:46:32;;;;;;;1.07;0.97;;;;;;;10.11;77.53;99873.34;5085084;28;20218;-76
2021/05/25 04:48:58;;;;;;;0.80;0.53;;;;;;;10.12;76.92;99876.81;5084275;28;20294;-74
2021/05/25 04:51:24;;;;;;;0.47;0.47;;;;;;;10.33;77.25;99872.81;5084583;28;20201;-76
2021/05/25 04:53:50;;;;;;;0.40;0.40;;;;;;;10.22;76.25;99870.44;5084814;28;20258;-76
2021/05/25 04:56:16;;;;;;;0.90;0.57;;;;;;;10.38;76.95;99870.06;5084912;28;20214;-75
2021/05/25 04:58:42;;;;;;;0.50;0.50;;;;;;;10.55;75.88;99870.47;5084632;28;20215;-76
2021/05/25 05:01:08;;;;;;;1.70;0.83;;;;;;;10.58;76.88;99872.97;5084778;28;20206;-75
2021/05/25 05:03:34;;;;;;;2.30;1.00;;;;;;;10.60;74.71;99871.19;5083908;28;20580;-76
2021/05/25 05:06:00;;;;;;;0.53;0.53;;;;;;;10.74;74.99;99873.41;5084741;28;20235;-76
2021/05/25 05:08:26;;;;;;;0.80;0.63;;;;;;;10.88;74.19;99873.88;5084258;28;20243;-74
2021/05/25 05:10:52;;;;;;;0.93;0.53;;;;;;;11.04;74.19;99873.41;5084684;28;20261;-76
2021/05/25 05:13:18;;;;;;;0.83;0.70;;;;;;;11.06;72.85;99879.44;5083725;28;20310;-76
2021/05/25 05:15:44;;;;;;;3.10;0.50;;;;;;;11.06;72.82;99867.25;5084154;28;20629;-76
2021/05/25 05:18:10;;;;;;;0.60;0.60;;;;;;;11.04;70.65;99879.50;5083958;28;20217;-76
2021/05/25 05:20:36;;;;;;;1.13;0.73;;;;;;;11.17;72.88;99879.97;5084240;28;20711;-75
2021/05/25 05:23:02;;;;;;;0.60;0.60;;;;;;;11.24;72.44;99884.13;5083820;28;20273;-76
2021/05/25 05:25:28;;;;;;;6.10;0.60;;;;;;;11.20;70.57;99889.47;5084371;28;20213;-77
2021/05/25 05:27:54;;;;;;;0.50;0.50;;;;;;;11.39;72.16;99889.78;5083856;28;20534;-76
2021/05/25 05:30:20;;;;;;;0.60;0.60;;;;;;;11.54;72.63;99889.28;5084139;28;20314;-76
2021/05/25 05:32:46;;;;;;;1.73;0.60;;;;;;;11.60;70.22;99883.03;5083569;28;20612;-76
2021/05/25 05:35:12;;;;;;;0.93;0.50;;;;;;;11.63;69.05;99886.38;5083905;28;20212;-76
2021/05/25 05:37:38;;;;;;;1.27;0.80;;;;;;;11.70;70.41;99887.03;5084190;28;20203;-75
2021/05/25 05:40:06;;;;;;;1.40;0.50;;;;;;;11.85;70.13;99878.69;5083662;28;20222;-76
2021/05/25 05:42:32;;;;;;;1.47;0.80;;;;;;;11.43;67.90;99881.78;5083889;28;20262;-74
2021/05/25 05:44:58;;;;;;;0.73;0.60;;;;;;;11.30;68.40;99890.91;5083306;28;20244;-76
2021/05/25 05:47:24;;;;;;;1.60;0.73;;;;;;;11.30;68.93;99885.69;5083717;28;20457;-76
2021/05/25 05:49:50;;;;;;;1.47;0.60;;;;;;;11.20;68.82;99887.72;5083092;28;20230;-77
2021/05/25 05:52:16;;;;;;;0.87;0.47;;;;;;;11.19;69.26;99893.84;5083626;28;20203;-77
2021/05/25 05:54:42;;;;;;;1.57;0.60;;;;;;;11.09;70.15;99892.41;5083741;28;20242;-75
2021/05/25 05:57:08;;;;;;;1.13;0.50;;;;;;;11.25;71.08;99893.66;5083427;28;20253;-75
2021/05/25 05:59:36;;;;;;;2.10;0.60;;;;;;;11.15;69.32;99894.84;5082979;28;20276;-77
2021/05/25 06:02:02;;;;;;;0.60;0.60;;;;;;;11.25;69.74;99898.88;5081311;28;20779;-77
2021/05/25 06:04:28;;;;;;;1.00;0.70;;;;;;;11.27;69.51;99906.69;5081984;28;20206;-77
2021/05/25 06:06:54;;;;;;;1.83;0.63;;;;;;;11.37;69.99;99902.88;5083372;28;20210;-76
2021/05/25 06:09:20;;;;;;;2.70;0.67;;;;;;;11.36;69.42;99910.75;5081248;28;20265;-77
2021/05/25 06:11:52;;;;;;;0.67;0.67;;;;;;;11.35;68.26;99907.28;5083188;28;20206;-77
2021/05/25 06:14:18;;;;;;;0.73;0.60;;;;;;;11.35;68.51;99915.13;5081718;28;20218;-76
2021/05/25 06:16:44;;;;;;;1.37;1.17;;;;;;;11.01;68.58;99913.53;5082295;28;20557;-76
2021/05/25 06:19:10;;;;;;;0.77;0.60;;;;;;;11.07;68.59;99910.75;5082489;28;20241;-75
2021/05/25 06:21:36;;;;;;;0.80;0.50;;;;;;;10.99;68.54;99906.66;5082636;28;20669;-74
2021/05/25 06:24:02;;;;;;;1.10;0.80;;;;;;;11.12;69.55;99913.22;5082589;28;20214;-76
2021/05/25 06:26:28;;;;;;;1.33;0.80;;;;;;;11.23;69.27;99918.97;5082680;28;20236;-76
2021/05/25 06:28:54;;;;;;;1.07;0.60;;;;;;;11.42;69.07;99907.97;5081772;28;20236;-76
2021/05/25 06:31:21;;;;;;;1.90;0.87;;;;;;;11.41;68.41;99916.72;5082613;28;20202;-76
2021/05/25 06:33:47;;;;;;;2.10;0.93;;;;;;;11.47;67.95;99913.91;5082167;28;20716;-76
2021/05/25 06:36:12;;;;;;;1.27;0.80;;;;;;;11.58;68.03;99919.66;5082836;28;20297;-76
2021/05/25 06:38:38;;;;;;;0.60;0.60;;;;;;;11.62;67.07;99916.03;5082348;28;20214;-76
2021/05/25 06:41:04;;;;;;;0.73;0.50;;;;;;;11.71;67.04;99917.50;5082542;28;20724;-76
2021/05/25 06:43:30;;;;;;;0.87;0.57;;;;;;;11.56;66.72;99912.78;5081975;28;20608;-74
2021/05/25 06:45:56;;;;;;;0.70;0.53;;;;;;;11.54;68.24;99920.66;5082497;28;20202;-76
2021/05/25 06:48:23;;;;;;;2.83;0.93;;;;;;;11.65;68.50;99923.78;5082384;28;20575;-76
2021/05/25 06:50:49;;;;;;;1.40;0.70;;;;;;;11.54;67.12;99920.66;5082030;28;20795;-75
2021/05/25 06:53:16;;;;;;;1.37;0.80;;;;;;;11.55;67.94;99924.97;5082160;28;20213;-76
2021/05/25 06:55:42;;;;;;;1.33;0.50;;;;;;;11.32;67.40;99929.16;5081822;28;20665;-76
2021/05/25 06:58:08;;;;;;;1.20;0.73;;;;;;;11.46;68.34;99923.50;5082530;28;20203;-74
2021/05/25 07:00:34;;;;;;;1.57;0.70;;;;;;;11.27;66.90;99927.59;5082472;28;20696;-77
2021/05/25 07:03:00;;;;;;;1.70;0.50;;;;;;;11.46;67.69;99928.75;5080106;28;20229;-77
2021/05/25 07:05:27;;;;;;;1.67;1.10;;;;;;;11.44;67.76;99934.91;5082465;28;20306;-76
2021/05/25 07:07:53;;;;;;;1.73;0.60;;;;;;;11.44;67.38;99929.69;5082819;28;20212;-77
2021/05/25 07:10:22;;;;;;;0.80;0.57;;;;;;;11.54;67.41;99931.13;5082629;28;20334;-76
2021/05/25 07:12:48;;;;;;;0.87;0.60;;;;;;;11.26;67.41;99934.56;5082259;28;20199;-78
2021/05/25 07:15:14;;;;;;;0.60;0.50;;;;;;;11.46;68.79;99927.88;5082488;28;20211;-78
2021/05/25 07:17:44;;;;;;;1.33;0.50;;;;;;;11.61;67.27;99932.63;5082234;28;20723;-78
2021/05/25 07:20:12;;;;;;;0.83;0.67;;;;;;;11.85;69.11;99933.63;5081693;28;20659;-78
2021/05/25 07:22:40;;;;;;;0.50;0.50;;;;;;;11.99;67.26;99934.94;5082400;28;20236;-76
2021/05/25 07:25:07;;;;;;;0.73;0.73;;;;;;;11.90;67.17;99931.72;5082636;28;20203;-75
2021/05/25 07:27:34;;;;;;;1.13;0.40;;;;;;;11.76;65.65;99931.28;5082623;28;20230;-76
2021/05/25 07:30:00;;;;;;;0.67;0.33;;;;;;;11.50;66.40;99932.97;5082552;28;20223;-77
2021/05/25 07:32:25;;;;;;;0.50;0.50;;;;;;;11.61;67.25;99937.84;5082197;28;20198;-76
2021/05/25 07:34:51;;;;;;;0.73;0.43;;;;;;;11.43;67.54;99946.25;5081886;28;20220;-77
2021/05/25 07:37:17;;;;;;;1.30;0.60;;;;;;;11.47;67.77;99945.25;5082901;28;20238;-75
2021/05/25 07:39:44;;;;;;;0.87;0.43;;;;;;;11.28;67.39;99955.44;5083038;28;20231;-76
2021/05/25 07:42:10;;;;;;;0.40;0.40;;;;;;;11.33;68.25;99951.75;5086841;28;20227;-76
2021/05/25 07:44:36;;;;;;;1.60;0.40;;;;;;;11.37;68.55;99952.53;5085248;28;20615;-75
2021/05/25 07:47:02;;;;;;;0.30;0.30;;;;;;;11.00;69.51;99940.56;5086387;28;20212;-76
2021/05/25 07:49:28;;;;;;;0.90;0.50;;;;;;;11.01;70.19;99952.72;5085527;28;20316;-76
2021/05/25 07:51:54;;;;;;;0.60;0.30;;;;;;;11.03;69.10;99947.44;5085724;28;20211;-75
2021/05/25 07:54:20;;;;;;;1.77;0.63;;;;;;;11.26;69.55;99942.41;5086796;28;20586;-76
2021/05/25 07:56:46;;;;;;;0.47;0.30;;;;;;;11.53;67.57;99939.84;5085905;28;20242;-75
2021/05/25 07:59:12;;;;;;;0.37;0.37;;;;;;;11.65;68.95;99942.06;5086004;28;20732;-76
2021/05/25 08:01:38;;;;;;;0.50;0.50;;;;;;;11.78;67.53;99939.94;5085837;28;20259;-76
2021/05/25 08:04:04;;;;;;;0.77;0.60;;;;;;;11.90;67.24;99946.56;5084285;28;20202;-77
2021/05/25 08:06:30;;;;;;;2.20;0.50;;;;;;;12.00;66.75;99944.50;5086065;28;20206;-77
2021/05/25 08:08:56;;;;;;;1.47;0.37;;;;;;;11.87;66.09;99942.28;5085101;28;20223;-76
2021/05/25 08:11:22;;;;;;;0.50;0.40;;;;;;;11.70;66.05;99934.09;5086205;28;20207;-76
2021/05/25 08:13:49;;;;;;;0.80;0.70;;;;;;;11.80;66.02;99932.06;5084576;28;20680;-76
2021/05/25 08:16:17;;;;;;;0.60;0.40;;;;;;;11.75;66.46;99932.19;5085376;28;20250;-75
2021/05/25 08:18:55;;;;;;;0.57;0.43;;;;;;;11.92;64.97;99937.75;5085266;28;20322;-76
2021/05/25 08:21:20;;;;;;;0.30;0.30;;;;;;;12.25;64.69;99931.44;5084940;28;20213;-77
2021/05/25 08:23:46;;;;;;;0.70;0.43;;;;;;;12.61;64.32;99939.81;5085177;28;20354;-76
2021/05/25 08:26:13;;;;;;;0.40;0.30;;;;;;;12.36;63.40;99936.34;5085400;28;20260;-75
2021/05/25 08:28:39;;;;;;;0.43;0.33;;;;;;;12.25;63.28;99934.06;5085432;28;20214;-76
2021/05/25 08:31:06;;;;;;;1.00;0.40;;;;;;;12.26;63.45;99939.25;5085488;28;20686;-76
2021/05/25 08:33:32;;;;;;;1.03;0.30;;;;;;;12.27;63.96;99940.97;5084237;28;20203;-75
2021/05/25 08:35:58;;;;;;;0.30;0.30;;;;;;;12.05;65.54;99956.53;5085396;28;20201;-75
2021/05/25 08:38:24;;;;;;;0.90;0.37;;;;;;;11.65;65.42;99956.91;5084787;28;20224;-77
2021/05/25 08:40:52;;;;;;;0.40;0.40;;;;;;;11.88;65.78;99958.81;5084763;28;20230;-76
2021/05/25 08:43:18;;;;;;;0.40;0.37;;;;;;;11.85;65.57;99967.63;5084683;28;20270;-76
2021/05/25 08:45:45;;;;;;;0.50;0.30;;;;;;;11.84;65.54;99959.81;5084806;28;20210;-76
2021/05/25 08:48:12;;;;;;;0.47;0.30;;;;;;;12.14;66.32;99960.59;5084102;28;20599;-76
2021/05/25 08:50:38;;;;;;;0.20;0.20;;;;;;;12.37;66.43;99954.59;5084276;28;20226;-77
2021/05/25 08:53:04;;;;;;;0.30;0.30;;;;;;;12.33;64.77;99955.63;5083712;28;20228;-75
2021/05/25 08:55:32;;;;;;;0.47;0.33;;;;;;;12.15;67.97;99967.56;5084218;28;20207;-74
2021/05/25 08:57:58;;;;;;;1.73;0.47;;;;;;;11.43;72.70;99975.84;5084710;28;20219;-75
2021/05/25 09:00:25;;;;;;;1.40;0.20;;;;;;;10.80;73.80;99975.06;5084267;28;20721;-74
2021/05/25 09:02:51;;;;;;;0.00;0.00;;;;;;;10.47;72.29;99964.63;5083596;28;20984;-76
2021/05/25 09:05:19;;;;;;;0.10;0.10;;;;;;;9.93;74.45;99984.19;5084019;28;20260;-76
2021/05/25 09:07:48;;;;;;;0.10;0.10;;;;;;;9.86;76.47;99974.78;5084476;28;20210;-77
2021/05/25 09:10:18;;;;;;;0.93;0.20;;;;;;;10.00;76.40;99971.00;5083961;28;20241;-76
2021/05/25 09:12:45;;;;;;;0.20;0.10;;;;;;;10.26;76.97;99965.13;5083404;28;20204;-76
2021/05/25 09:15:14;;;;;;;0.20;0.20;;;;;;;10.58;76.54;99963.47;5081285;28;20226;-76
2021/05/25 09:17:40;;;;;;;0.10;0.10;;;;;;;10.69;76.54;99964.91;5083540;28;20210;-78
2021/05/25 09:20:09;;;;;;;0.33;0.27;;;;;;;10.60;75.93;99966.91;5083113;28;20717;-76
2021/05/25 09:22:37;;;;;;;1.53;0.30;;;;;;;10.66;75.93;99959.78;5084058;28;20260;-77
2021/05/25 09:25:14;;;;;;;0.60;0.30;;;;;;;10.86;76.50;99958.34;5084224;28;20214;-76
2021/05/25 09:27:42;;;;;;;0.20;0.20;;;;;;;10.80;76.62;99955.91;5083383;28;20739;-76
2021/05/25 09:30:20;;;;;;;0.40;0.40;;;;;;;10.92;77.52;99959.06;5084148;28;20233;-77
2021/05/25 09:32:52;;;;;;;0.43;0.30;;;;;;;10.76;76.92;99965.59;5083763;28;20206;-76
2021/05/25 09:35:20;;;;;;;0.30;0.30;;;;;;;11.06;76.57;99963.88;5083640;28;20207;-76
2021/05/25 09:37:49;;;;;;;0.33;0.33;;;;;;;11.20;74.27;99957.38;5083874;28;20298;-76
2021/05/25 09:40:17;;;;;;;0.30;0.20;;;;;;;11.11;73.36;99966.34;5083894;28;20268;-75
2021/05/25 09:42:44;;;;;;;1.23;0.50;;;;;;;11.30;73.83;99957.09;5083557;28;20281;-78
2021/05/25 09:45:13;;;;;;;2.20;0.30;;;;;;;11.27;74.65;99961.53;5083192;28;20247;-78
2021/05/25 09:47:40;;;;;;;1.03;0.30;;;;;;;10.93;71.85;99947.69;5084167;28;20265;-77
2021/05/25 09:50:08;;;;;;;0.37;0.30;;;;;;;10.76;72.23;99955.13;5083319;28;20224;-77
2021/05/25 09:52:34;;;;;;;0.40;0.20;;;;;;;10.89;74.07;99959.13;5083382;28;20692;-77
2021/05/25 09:55:10;;;;;;;0.73;0.30;;;;;;;10.64;74.44;99971.13;5084076;28;20674;-77
2021/05/25 09:57:49;;;;;;;0.20;0.20;;;;;;;10.67;75.32;99964.09;5083500;28;20219;-76
2021/05/25 10:00:29;;;;;;;0.10;0.10;;;;;;;10.83;75.50;99961.91;5083891;28;20809;-76
2021/05/25 10:03:14;;;;;;;0.43;0.20;;;;;;;10.87;74.59;99963.53;5083210;28;20282;-77
2021/05/25 10:05:43;;;;;;;0.10;0.10;;;;;;;11.00;74.58;99971.03;5076101;28;20206;-77
2021/05/25 10:08:09;;;;;;;0.10;0.10;;;;;;;11.26;76.55;99962.47;5082681;28;21383;-75
2021/05/25 10:10:36;;;;;;;0.10;0.10;;;;;;;11.47;75.52;99960.94;5083151;28;20258;-75
2021/05/25 10:13:02;;;;;;;0.20;0.17;;;;;;;11.45;76.64;99957.53;5082498;28;20242;-77
2021/05/25 10:15:29;;;;;;;0.43;0.20;;;;;;;11.65;76.01;99959.53;5082639;28;20202;-76
2021/05/25 10:20:38;;;;;;;0.20;0.20;;;;;;;12.21;73.33;99953.38;5072435;28;20223;-76
2021/05/25 10:23:04;;;;;;;0.20;0.20;;;;;;;11.87;70.75;99955.34;5082634;28;20371;-76
2021/05/25 10:25:34;;;;;;;0.30;0.30;;;;;;;11.75;69.56;99941.78;5082784;28;20247;-73
2021/05/25 10:28:06;;;;;;;0.40;0.40;;;;;;;12.15;71.30;99932.66;5082786;28;20571;-75
2021/05/25 10:30:44;;;;;;;0.20;0.20;;;;;;;12.42;72.51;99939.56;5082707;28;20317;-74
2021/05/25 10:33:37;;;;;;;0.50;0.50;;;;;;;12.72;68.95;99934.16;5082271;28;20203;-77
2021/05/25 10:36:06;;;;;;;1.20;0.50;;;;;;;12.75;69.55;99944.56;5080752;28;20237;-75
2021/05/25 10:38:34;;;;;;;0.30;0.30;;;;;;;11.97;69.77;99968.13;5082627;28;20276;-76
2021/05/25 10:41:02;;;;;;;0.43;0.40;;;;;;;10.90;73.96;99976.53;5082337;28;20242;-73
2021/05/25 10:43:46;;;;;;;0.50;0.40;;;;;;;9.75;77.66;100000.22;5082164;28;20227;-75
2021/05/25 10:46:22;;;;;;;0.80;0.50;;;;;;;9.48;81.22;100009.53;5082325;28;20206;-74
2021/05/25 10:48:51;;;;;;;0.40;0.40;;;;;;;9.73;81.81;100010.72;5082352;28;20297;-75
2021/05/25 10:51:17;;;;;;;0.97;0.50;;;;;;;9.88;82.03;100006.88;5081771;28;20277;-76
2021/05/25 10:53:43;;;;;;;0.40;0.40;;;;;;;9.93;81.01;100004.19;5082821;28;20310;-75
2021/05/25 10:56:24;;;;;;;0.50;0.50;;;;;;;10.16;81.59;99992.34;5082389;28;20203;-74
2021/05/25 10:59:00;;;;;;;0.60;0.60;;;;;;;10.29;80.23;99997.22;5082275;28;20214;-76
2021/05/25 11:01:29;;;;;;;0.83;0.60;;;;;;;10.51;80.27;100000.19;5082112;28;20207;-75
2021/05/25 11:04:05;;;;;;;0.43;0.43;;;;;;;10.84;80.34;100001.94;5081666;28;20261;-76
2021/05/25 11:06:31;;;;;;;0.70;0.70;;;;;;;11.17;80.47;100002.75;5082325;28;20196;-77
2021/05/25 11:09:19;;;;;;;1.33;0.77;;;;;;;11.25;76.69;99990.31;5082191;28;20734;-77
2021/05/25 11:11:45;;;;;;;0.53;0.53;;;;;;;11.32;76.41;99985.78;5082434;28;20696;-78
2021/05/25 11:14:13;;;;;;;1.47;1.07;;;;;;;11.70;78.34;99987.25;5081332;28;20210;-76
2021/05/25 11:16:40;;;;;;;0.40;0.40;;;;;;;11.94;76.39;99983.94;5086669;28;20211;-77
2021/05/25 11:19:24;;;;;;;0.40;0.40;;;;;;;12.53;75.25;99975.88;5085903;28;20227;-77
2021/05/25 11:24:36;;;;;;;0.50;0.40;;;;;;;13.49;72.03;99968.03;5086335;28;20213;-77
2021/05/25 11:27:05;;;;;;;0.30;0.30;;;;;;;13.69;71.85;99964.63;5086494;28;20206;-78
2021/05/25 11:29:33;;;;;;;0.30;0.27;;;;;;;14.10;70.20;99968.22;5086207;28;20313;-77
2021/05/25 11:32:04;;;;;;;0.33;0.20;;;;;;;14.32;70.80;99969.13;5085800;28;20207;-74
2021/05/25 11:34:30;;;;;;;0.70;0.30;;;;;;;14.42;67.30;99963.41;5085417;28;20207;-75
2021/05/25 11:36:58;;;;;;;0.53;0.23;;;;;;;14.59;67.01;99964.47;5086121;28;20744;-75
2021/05/25 11:39:25;;;;;;;0.47;0.33;;;;;;;15.51;62.40;99973.47;5085893;28;20229;-76
2021/05/25 11:41:51;;;;;;;0.20;0.20;;;;;;;16.01;57.34;99959.69;5086031;28;20201;-78